Data for 01/06/2015

Time Sea-Level Adjusted Pressure Absolute Pressure Temperature Relative Humidity Dew Point   
(mb) (inHg) (mb) (inHg) (C) (F) (%) (C) (F)
00:05 1025 30.27 854 25.22 5.8 42.5 64 -0.4 31.3
00:10 1025 30.27 854 25.22 5.7 42.3 63 -0.7 30.7
00:15 1025 30.27 854 25.22 5.5 41.8 65 -0.6 30.9
00:20 1025 30.27 854 25.22 5.4 41.8 66 -0.4 31.2
00:25 1025 30.27 854 25.22 5.3 41.6 65 -0.8 30.6
00:30 1025 30.27 854 25.22 5.5 41.9 64 -0.7 30.8
00:35 1025 30.27 854 25.22 5.7 42.2 64 -0.6 31
00:40 1025 30.27 854 25.22 5.7 42.3 64 -0.5 31.1
00:45 1024 30.24 854 25.22 5.8 42.4 64 -0.5 31.1
00:50 1024 30.24 854 25.22 5.9 42.6 64 -0.4 31.2
00:55 1024 30.24 854 25.22 5.9 42.7 63 -0.5 31.1
01:00 1024 30.24 854 25.22 5.9 42.6 64 -0.5 31.1
01:05 1024 30.24 854 25.22 5.9 42.6 64 -0.4 31.2
01:10 1024 30.24 854 25.22 5.8 42.5 64 -0.5 31.1
01:15 1024 30.24 854 25.22 5.7 42.3 64 -0.5 31
01:20 1024 30.24 854 25.22 5.9 42.6 63 -0.5 31
01:25 1024 30.24 854 25.22 5.8 42.5 64 -0.5 31
01:30 1024 30.24 854 25.22 5.9 42.7 62 -0.7 30.8
01:35 1024 30.24 854 25.22 6.2 43.1 61 -0.7 30.8
01:40 1024 30.24 854 25.22 6.2 43.2 61 -0.7 30.8
01:45 1024 30.24 854 25.22 6.1 43 62 -0.6 30.8
01:50 1024 30.24 854 25.22 6.1 43 61 -0.8 30.5
01:55 1024 30.24 854 25.22 6.4 43.4 59 -0.9 30.3
02:00 1025 30.27 854 25.22 6.7 44 59 -0.8 30.6
02:05 1025 30.27 854 25.22 6.6 43.9 59 -0.9 30.4
02:10 1025 30.27 854 25.22 6.6 44 59 -0.8 30.6
02:15 1025 30.27 854 25.22 6.7 44.1 57 -1.2 29.9
02:20 1025 30.27 854 25.22 7.1 44.8 57 -0.8 30.5
02:25 1025 30.27 854 25.22 6.9 44.5 58 -0.8 30.5
02:30 1025 30.27 854 25.22 6.7 44.1 58 -1 30.2
02:35 1025 30.27 854 25.22 6.7 44 58 -1 30.3
02:40 1025 30.27 854 25.22 6.6 43.9 58 -1.1 30.1
02:45 1025 30.27 854 25.22 6.6 43.9 57 -1.2 29.9
02:50 1025 30.27 854 25.22 6.7 44.1 56 -1.4 29.6
02:55 1025 30.27 854 25.22 7 44.7 56 -1.2 29.8
03:00 1025 30.27 854 25.22 7.1 44.7 56 -1.2 29.9
03:05 1025 30.27 854 25.22 7 44.5 56 -1.1 30
03:10 1025 30.27 854 25.22 6.9 44.4 56 -1.3 29.7
03:15 1025 30.27 854 25.22 7 44.6 56 -1.2 29.9
03:20 1025 30.27 854 25.22 6.9 44.4 57 -1.1 30.1
03:25 1025 30.27 854 25.22 6.7 44.1 57 -1.2 29.8
03:30 1025 30.27 854 25.22 6.8 44.2 56 -1.3 29.6
03:35 1025 30.27 854 25.22 6.8 44.3 57 -1.2 29.9
03:40 1025 30.27 854 25.22 7 44.6 55 -1.5 29.3
03:45 1025 30.27 854 25.22 7.2 45 54 -1.3 29.6
03:50 1025 30.27 854 25.22 7.5 45.4 53 -1.6 29.1
03:55 1025 30.27 854 25.22 7.6 45.6 53 -1.4 29.5
04:00 1025 30.27 854 25.22 7.6 45.7 52 -1.5 29.3
04:05 1025 30.27 854 25.22 7.6 45.7 52 -1.5 29.4
04:10 1025 30.27 854 25.22 7.6 45.7 52 -1.5 29.2
04:15 1025 30.27 854 25.22 7.6 45.6 53 -1.5 29.3
04:20 1025 30.27 854 25.22 7.4 45.2 54 -1.3 29.7
04:25 1025 30.27 854 25.22 6.9 44.5 55 -1.4 29.6
04:30 1025 30.27 854 25.22 6.9 44.4 54 -1.6 29.1
04:35 1025 30.27 854 25.22 7.4 45.3 52 -1.8 28.7
04:40 1025 30.27 854 25.22 7.7 45.9 51 -1.8 28.8
04:45 1025 30.27 854 25.22 7.7 45.9 52 -1.4 29.4
04:50 1025 30.27 854 25.22 7.4 45.4 54 -1.4 29.5
04:55 1025 30.27 854 25.22 7.1 44.8 54 -1.6 29.2
05:00 1025 30.27 854 25.22 7.1 44.7 53 -1.8 28.8
05:05 1025 30.27 854 25.22 7.4 45.2 52 -1.8 28.7
05:10 1025 30.27 854 25.22 7.6 45.7 52 -1.6 29
05:15 1025 30.27 854 25.22 7.6 45.6 53 -1.4 29.6
05:20 1025 30.27 854 25.22 7.2 44.9 54 -1.6 29.1
05:25 1025 30.27 855 25.25 7.2 45 53 -1.7 28.9
05:30 1025 30.27 855 25.25 7.5 45.5 52 -1.7 29
05:35 1025 30.27 855 25.25 7.6 45.6 52 -1.5 29.2
05:40 1026 30.3 855 25.25 7.5 45.5 53 -1.5 29.3
05:45 1026 30.3 855 25.25 7.3 45.1 54 -1.3 29.7
05:50 1026 30.3 855 25.25 7 44.6 55 -1.5 29.3
05:55 1026 30.3 855 25.25 7.2 44.9 54 -1.5 29.3
06:00 1026 30.3 855 25.25 7 44.7 56 -1.2 29.9
06:05 1026 30.3 855 25.25 6.8 44.3 56 -1.4 29.4
06:10 1026 30.3 855 25.25 7 44.7 55 -1.3 29.6
06:15 1026 30.3 855 25.25 6.9 44.5 55 -1.4 29.5
06:20 1026 30.3 855 25.25 7.1 44.7 54 -1.5 29.3
06:25 1026 30.3 855 25.25 7.1 44.7 55 -1.3 29.7
06:30 1026 30.3 855 25.25 6.9 44.4 56 -1.2 29.8
06:35 1026 30.3 855 25.25 6.9 44.4 55 -1.5 29.3
06:40 1026 30.3 855 25.25 7.1 44.8 54 -1.4 29.4
06:45 1026 30.3 855 25.25 7.2 45 55 -1.3 29.6
06:50 1026 30.3 855 25.25 7.2 45 54 -1.4 29.5
06:55 1026 30.3 855 25.25 7.3 45.2 54 -1.5 29.3
07:00 1026 30.3 855 25.25 7.7 45.9 52 -1.4 29.4
07:05 1026 30.3 855 25.25 7.8 46 53 -1.2 29.9
07:10 1026 30.3 855 25.25 7.6 45.7 53 -1.3 29.7
07:15 1026 30.3 855 25.25 7.6 45.7 54 -1.2 29.8
07:20 1026 30.3 855 25.25 7.6 45.7 53 -1.3 29.6
07:25 1026 30.3 855 25.25 7.9 46.1 53 -1.1 30.1
07:30 1026 30.3 855 25.25 7.5 45.5 55 -0.9 30.3
07:35 1026 30.3 855 25.25 7.4 45.2 55 -1.1 30
07:40 1026 30.3 855 25.25 7.3 45.2 55 -1.1 30
07:45 1026 30.3 855 25.25 7.4 45.2 55 -1 30.2
07:50 1026 30.3 855 25.25 7.3 45.1 55 -1.1 30.1
07:55 1026 30.3 855 25.25 7.2 45 56 -1 30.3
08:00 1026 30.3 855 25.25 7.1 44.8 55 -1.3 29.7
08:05 1026 30.3 855 25.25 7.4 45.3 54 -1.3 29.6
08:10 1026 30.3 855 25.25 7.7 45.8 53 -1.3 29.6
08:15 1026 30.3 855 25.25 7.8 46.1 53 -1.2 29.8
08:20 1026 30.3 855 25.25 7.9 46.1 53 -1.2 29.8
08:25 1026 30.3 855 25.25 7.8 46 53 -1.1 30
08:30 1026 30.3 855 25.25 7.5 45.6 54 -1.1 30.1
08:35 1026 30.3 855 25.25 7.4 45.4 54 -1.3 29.7
08:40 1026 30.3 855 25.25 7.6 45.7 54 -1.2 29.8
08:45 1026 30.3 855 25.25 7.6 45.6 54 -1.2 29.9
08:50 1026 30.3 855 25.25 7.6 45.7 54 -1.2 29.9
08:55 1026 30.3 855 25.25 7.6 45.7 54 -1.2 29.9
09:00 1026 30.3 856 25.28 7.7 45.9 53 -1.2 29.8
09:05 1027 30.33 856 25.28 7.8 46 54 -1 30.2
09:10 1027 30.33 856 25.28 7.6 45.6 55 -0.9 30.4
09:15 1027 30.33 856 25.28 7.2 44.9 57 -0.7 30.8
09:20 1027 30.33 856 25.28 6.8 44.2 59 -0.8 30.6
09:25 1027 30.33 856 25.28 6.7 44 58 -0.9 30.3
09:30 1026 30.3 856 25.28 6.7 44.1 58 -0.9 30.3
09:35 1026 30.3 856 25.28 7 44.5 56 -1.1 29.9
09:40 1026 30.3 856 25.28 7.1 44.7 57 -1 30.3
09:45 1026 30.3 856 25.28 7.1 44.7 55 -1.2 29.8
09:50 1027 30.33 856 25.28 7.2 45 55 -1.1 29.9
09:55 1027 30.33 856 25.28 7.4 45.4 53 -1.5 29.2
10:00 1027 30.33 856 25.28 7.9 46.2 52 -1.4 29.5
10:05 1026 30.3 856 25.28 8 46.4 51 -1.6 29.2
10:10 1026 30.3 856 25.28 8.2 46.7 51 -1.3 29.6
10:15 1026 30.3 856 25.28 8.2 46.8 50 -1.4 29.4
10:20 1026 30.3 856 25.28 8.5 47.2 49 -1.6 29.1
10:25 1026 30.3 856 25.28 8.7 47.7 48 -1.6 29.1
10:30 1026 30.3 855 25.25 8.9 47.9 48 -1.5 29.3
10:35 1026 30.3 856 25.28 8.7 47.7 48 -1.6 29.2
10:40 1026 30.3 856 25.28 8.9 48 48 -1.6 29.2
10:45 1026 30.3 856 25.28 8.9 48.1 48 -1.6 29.2
10:50 1026 30.3 856 25.28 9.1 48.3 47 -1.5 29.3
10:55 1027 30.33 856 25.28 8.9 48.1 49 -1.3 29.7
11:00 1027 30.33 856 25.28 8.8 47.8 48 -1.6 29.1
11:05 1027 30.33 856 25.28 8.9 48 48 -1.6 29.2
11:10 1027 30.33 856 25.28 9 48.2 47 -1.7 29
11:15 1027 30.33 856 25.28 9.1 48.5 47 -1.6 29.2
11:20 1027 30.33 856 25.28 9.2 48.6 47 -1.4 29.5
11:25 1027 30.33 856 25.28 8.9 48 51 -0.7 30.7
11:30 1027 30.33 856 25.28 8.3 46.9 51 -1.3 29.7
11:35 1027 30.33 856 25.28 8.5 47.3 50 -1.3 29.6
11:40 1027 30.33 856 25.28 8.5 47.3 51 -0.9 30.4
11:45 1027 30.33 856 25.28 8.3 47 52 -1 30.2
11:50 1027 30.33 856 25.28 8.2 46.8 52 -1 30.2
11:55 1027 30.33 856 25.28 8.3 46.9 52 -0.9 30.4
12:00 1026 30.3 856 25.28 8.2 46.7 53 -0.9 30.4
12:05 1026 30.3 856 25.28 8.3 46.9 52 -1 30.2
12:10 1026 30.3 856 25.28 8.6 47.5 50 -1.1 30.1
12:15 1026 30.3 856 25.28 8.8 47.8 51 -0.8 30.5
12:20 1026 30.3 856 25.28 8.9 48.1 49 -1.1 30
12:25 1026 30.3 856 25.28 9.1 48.4 49 -1 30.2
12:30 1026 30.3 856 25.28 9.2 48.5 48 -1.1 30
12:35 1026 30.3 856 25.28 9.3 48.7 48 -1.2 29.8
12:40 1026 30.3 856 25.28 9.4 48.9 48 -1 30.2
12:45 1026 30.3 856 25.28 9.5 49.1 47 -1.1 30.1
12:50 1026 30.3 856 25.28 9.6 49.3 47 -1.1 30
12:55 1026 30.3 856 25.28 9.5 49.1 48 -1 30.3
13:00 1026 30.3 856 25.28 9.5 49.1 48 -1 30.1
13:05 1027 30.33 856 25.28 9.4 48.9 48 -1 30.2
13:10 1026 30.3 856 25.28 9.2 48.5 49 -1 30.2
13:15 1026 30.3 856 25.28 9 48.3 49 -1.1 30
13:20 1026 30.3 856 25.28 8.9 48 50 -0.9 30.4
13:25 1026 30.3 856 25.28 8.7 47.7 50 -1 30.2
13:30 1026 30.3 856 25.28 8.6 47.6 50 -1 30.1
13:35 1026 30.3 856 25.28 8.7 47.6 50 -1.1 30.1
13:40 1026 30.3 856 25.28 8.7 47.7 50 -1.1 30
13:45 1026 30.3 855 25.25 8.8 47.8 50 -1 30.2
13:50 1026 30.3 855 25.25 8.8 47.9 50 -1.1 30
13:55 1026 30.3 855 25.25 8.9 48.1 50 -1 30.2
14:00 1026 30.3 855 25.25 8.9 48.1 50 -0.9 30.3
14:05 1026 30.3 855 25.25 8.9 48 50 -1 30.1
14:10 1026 30.3 855 25.25 9 48.1 50 -0.9 30.3
14:15 1026 30.3 855 25.25 8.9 48.1 50 -1 30.3
14:20 1026 30.3 855 25.25 9.1 48.3 49 -0.9 30.4
14:25 1026 30.3 855 25.25 9.2 48.6 49 -0.9 30.4
14:30 1026 30.3 855 25.25 9.3 48.8 48 -1.1 30
14:35 1026 30.3 855 25.25 9.6 49.2 48 -0.9 30.4
14:40 1026 30.3 855 25.25 9.6 49.2 48 -0.7 30.7
14:45 1026 30.3 855 25.25 9.2 48.6 52 -0.1 31.8
14:50 1026 30.3 855 25.25 8 46.4 54 -0.8 30.6
14:55 1026 30.3 855 25.25 8.3 47 52 -0.9 30.4
15:00 1026 30.3 855 25.25 8.7 47.7 51 -0.8 30.5
15:05 1026 30.3 855 25.25 9 48.2 50 -0.9 30.4
15:10 1026 30.3 855 25.25 9.2 48.5 50 -0.8 30.6
15:15 1026 30.3 855 25.25 9.3 48.8 49 -0.7 30.8
15:20 1026 30.3 855 25.25 9.3 48.7 49 -0.8 30.5
15:25 1026 30.3 855 25.25 9.3 48.7 49 -0.9 30.3
15:30 1026 30.3 855 25.25 9.4 49 49 -0.7 30.7
15:35 1026 30.3 855 25.25 9.4 48.9 48 -1.1 30
15:40 1026 30.3 855 25.25 9.5 49 47 -1.3 29.7
15:45 1026 30.3 855 25.25 9.5 49.1 48 -0.9 30.4
15:50 1026 30.3 855 25.25 9.5 49.1 47 -1.1 30
15:55 1026 30.3 855 25.25 9.3 48.8 48 -1 30.1
16:00 1026 30.3 855 25.25 9.2 48.6 49 -0.9 30.4
16:05 1026 30.3 855 25.25 9.1 48.3 51 -0.5 31.1
16:10 1026 30.3 856 25.28 8.5 47.3 53 -0.6 30.9
16:15 1026 30.3 856 25.28 8 46.3 54 -0.9 30.5
16:20 1027 30.33 856 25.28 6 42.8 56 -2 28.4
16:25 1027 30.33 856 25.28 4.1 39.5 60 -3 26.7
16:30 1027 30.33 856 25.28 3.2 37.7 61 -3.5 25.6
16:35 1027 30.33 856 25.28 1.8 35.2 65 -4.1 24.7
16:40 1027 30.33 856 25.28 1 33.8 65 -4.9 23.2
16:45 1027 30.33 856 25.28 0.2 32.3 67 -5.3 22.5
16:50 1027 30.33 856 25.28 -0.4 31.2 67 -5.7 21.7
16:55 1027 30.33 856 25.28 -1 30.2 68 -6.2 20.8
17:00 1027 30.33 856 25.28 -1.6 29 70 -6.5 20.3
17:05 1027 30.33 856 25.28 -2.1 28.2 70 -6.9 19.5
17:10 1027 30.33 856 25.28 -2.6 27.3 70 -7.3 18.9
17:15 1027 30.33 857 25.31 -2.9 26.7 71 -7.6 18.4
17:20 1027 30.33 857 25.31 -3.2 26.2 70 -8 17.6
17:25 1028 30.36 857 25.31 -3.8 25.2 71 -8.3 17.1
17:30 1028 30.36 857 25.31 -4.1 24.6 71 -8.5 16.6
17:35 1028 30.36 857 25.31 -4.6 23.7 72 -9 15.9
17:40 1028 30.36 857 25.31 -4.5 23.9 71 -9 15.8
17:45 1028 30.36 857 25.31 -4.8 23.4 70 -9.4 15
17:50 1028 30.36 857 25.31 -5.3 22.5 69 -10 14
17:55 1028 30.36 858 25.34 -5.7 21.7 71 -10.3 13.5
18:00 1029 30.39 858 25.34 -6 21.3 71 -10.5 13.2
18:05 1029 30.39 858 25.34 -6.6 20.1 72 -10.8 12.5
18:10 1029 30.39 858 25.34 -7 19.4 72 -11.2 11.8
18:15 1029 30.39 858 25.34 -7.3 18.9 74 -11.2 11.9
18:20 1029 30.39 858 25.34 -7.3 18.8 73 -11.3 11.6
18:25 1029 30.39 858 25.34 -7.5 18.6 73 -11.4 11.4
18:30 1029 30.39 858 25.34 -7.7 18.2 74 -11.6 11.2
18:35 1029 30.39 858 25.34 -7.8 18 73 -11.7 10.9
18:40 1029 30.39 858 25.34 -8 17.5 74 -11.9 10.5
18:45 1029 30.39 859 25.37 -8.2 17.2 73 -12.2 10
18:50 1029 30.39 859 25.37 -8.3 17.1 74 -12.1 10.1
18:55 1029 30.39 859 25.37 -8.4 16.9 73 -12.4 9.8
19:00 1029 30.39 859 25.37 -8.6 16.6 75 -12.3 9.9
19:05 1029 30.39 859 25.37 -8.8 16.3 74 -12.5 9.5
19:10 1029 30.39 859 25.37 -8.9 16 75 -12.6 9.4
19:15 1029 30.39 859 25.37 -9 15.9 75 -12.6 9.3
19:20 1030 30.42 859 25.37 -9.1 15.6 75 -12.7 9.1
19:25 1030 30.42 859 25.37 -9.1 15.6 75 -12.8 9
19:30 1030 30.42 859 25.37 -9.2 15.4 75 -12.8 8.9
19:35 1030 30.42 859 25.37 -9.3 15.2 76 -12.8 8.9
19:40 1030 30.42 859 25.37 -9.5 15 76 -12.9 8.7
19:45 1030 30.42 859 25.37 -9.6 14.7 76 -13 8.6
19:50 1030 30.42 859 25.37 -9.6 14.7 77 -13 8.6
19:55 1030 30.42 859 25.37 -9.6 14.8 76 -13 8.6
20:00 1030 30.42 859 25.37 -9.8 14.4 76 -13.3 8
20:05 1030 30.42 860 25.4 -9.9 14.1 76 -13.4 8
20:10 1030 30.42 860 25.4 -9.9 14.1 75 -13.5 7.7
20:15 1030 30.42 860 25.4 -9.8 14.3 76 -13.3 8.1
20:20 1031 30.45 860 25.4 -9.7 14.5 75 -13.4 7.9
20:25 1031 30.45 860 25.4 -9.9 14.2 76 -13.4 7.8
20:30 1031 30.45 860 25.4 -9.9 14.2 75 -13.5 7.7
20:35 1031 30.45 860 25.4 -9.8 14.4 75 -13.4 7.8
20:40 1031 30.45 860 25.4 -9.9 14.3 75 -13.5 7.7
20:45 1031 30.45 860 25.4 -10 14 76 -13.5 7.8
20:50 1031 30.45 860 25.4 -9.9 14.3 76 -13.4 7.9
20:55 1031 30.45 860 25.4 -9.9 14.2 75 -13.5 7.7
21:00 1031 30.45 861 25.43 -9.7 14.5 74 -13.5 7.8
21:05 1031 30.45 861 25.43 -9.5 14.9 74 -13.4 7.9
21:10 1031 30.45 861 25.43 -9.5 14.9 74 -13.3 8
21:15 1031 30.45 861 25.43 -9.6 14.8 74 -13.4 8
21:20 1031 30.45 861 25.43 -9.6 14.8 73 -13.5 7.8
21:25 1031 30.45 861 25.43 -9.8 14.3 75 -13.5 7.7
21:30 1032 30.47 861 25.43 -10.1 13.9 74 -13.8 7.1
21:35 1032 30.47 861 25.43 -10 14 75 -13.6 7.5
21:40 1032 30.47 861 25.43 -10.2 13.7 75 -13.8 7.2
21:45 1032 30.47 861 25.43 -10.2 13.6 74 -13.9 6.9
21:50 1032 30.47 861 25.43 -10.3 13.6 75 -13.9 6.9
21:55 1032 30.47 861 25.43 -10.4 13.3 76 -13.9 7
22:00 1032 30.47 861 25.43 -10.7 12.8 76 -14.1 6.7
22:05 1032 30.47 861 25.43 -10.6 12.9 76 -14 6.8
22:10 1032 30.47 862 25.45 -10.7 12.8 76 -14.1 6.5
22:15 1032 30.47 862 25.45 -10.6 12.9 74 -14.4 6
22:20 1032 30.47 862 25.45 -10.7 12.7 74 -14.5 5.9
22:25 1032 30.47 862 25.45 -10.7 12.7 75 -14.3 6.2
22:30 1032 30.47 862 25.45 -10.8 12.6 75 -14.4 6.1
22:35 1032 30.47 862 25.45 -10.8 12.5 74 -14.5 5.8
22:40 1033 30.5 862 25.45 -10.9 12.4 75 -14.5 6
22:45 1033 30.5 862 25.45 -10.9 12.4 75 -14.5 5.8
22:50 1033 30.5 862 25.45 -10.9 12.4 75 -14.5 6
22:55 1033 30.5 862 25.45 -11.2 11.9 75 -14.8 5.4
23:00 1033 30.5 862 25.45 -11.2 11.9 75 -14.8 5.3
23:05 1033 30.5 862 25.45 -11.2 11.9 76 -14.7 5.6
23:10 1033 30.5 862 25.45 -11.3 11.7 75 -14.8 5.3
23:15 1033 30.5 862 25.45 -11.3 11.6 76 -14.8 5.3
23:20 1033 30.5 862 25.45 -11.4 11.5 76 -14.9 5.2
23:25 1033 30.5 863 25.48 -11.5 11.4 75 -15 5.1
23:30 1034 30.53 863 25.48 -11.5 11.4 76 -14.9 5.1
23:35 1034 30.53 863 25.48 -11.6 11.2 75 -15.2 4.7
23:40 1034 30.53 863 25.48 -11.6 11.1 75 -15.2 4.7
23:45 1034 30.53 863 25.48 -11.6 11.1 75 -15.2 4.6
23:50 1034 30.53 863 25.48 -11.9 10.7 76 -15.3 4.4
23:55 1034 30.53 863 25.48 -11.8 10.8 75 -15.3 4.4
24:00 1034 30.53 863 25.48 -11.7 10.9 75 -15.2 4.6